Time;durP1;ratioP1;P1;durP2;ratioP2;P2;SDS_P1;SDS_P2;PMS_P1;PMS_P2;Temp;Humidity;BMP_temperature;BMP_pressure;BME280_temperature;BME280_humidity;BME280_pressure;Samples;Min_cycle;Max_cycle;Signal;HPM_P1;HPM_P2
2022/08/19 00:02:05;;;;;;;1.63;1.50;;;;;19.80;95674.00;;;;5115677;28;20205;-58
2022/08/19 00:04:36;;;;;;;1.80;1.63;;;;;19.60;95668.00;;;;5097993;28;20216;-58
2022/08/19 00:07:03;;;;;;;1.23;1.20;;;;;19.60;95663.00;;;;5115388;28;20287;-61
2022/08/19 00:09:33;;;;;;;2.20;2.10;;;;;19.60;95669.00;;;;5115469;28;20194;-59
2022/08/19 00:12:00;;;;;;;2.77;2.57;;;;;19.60;95657.00;;;;5115408;28;20740;-60
2022/08/19 00:14:31;;;;;;;2.47;2.33;;;;;19.70;95668.00;;;;5115507;28;20285;-61
2022/08/19 00:16:59;;;;;;;2.13;2.03;;;;;19.60;95653.00;;;;5097281;28;20293;-60
2022/08/19 00:19:25;;;;;;;1.53;1.43;;;;;19.60;95667.00;;;;5115193;28;20213;-60
2022/08/19 00:21:54;;;;;;;2.00;1.90;;;;;19.70;95651.00;;;;5097590;28;20289;-60
2022/08/19 00:24:21;;;;;;;3.87;2.87;;;;;19.70;95660.00;;;;5097111;28;20673;-59
2022/08/19 00:26:48;;;;;;;2.90;2.57;;;;;19.70;95660.00;;;;5115053;28;20246;-59
2022/08/19 00:29:20;;;;;;;1.77;1.67;;;;;19.60;95649.00;;;;5097448;28;20198;-59
2022/08/19 00:31:48;;;;;;;3.50;2.27;;;;;19.60;95635.00;;;;5097056;28;20546;-60
2022/08/19 00:34:15;;;;;;;2.27;2.07;;;;;19.60;95636.00;;;;5097038;28;20197;-59
2022/08/19 00:36:45;;;;;;;1.93;1.83;;;;;19.50;95623.00;;;;5115303;28;20210;-60
2022/08/19 00:39:13;;;;;;;2.63;2.07;;;;;19.40;95627.00;;;;5115162;28;20271;-60
2022/08/19 00:41:41;;;;;;;1.63;1.47;;;;;19.30;95633.00;;;;5114793;28;20228;-60
2022/08/19 00:44:12;;;;;;;1.20;1.20;;;;;19.30;95624.00;;;;5114964;28;20613;-65
2022/08/19 00:46:42;;;;;;;2.13;2.03;;;;;19.40;95625.00;;;;5114787;28;20226;-60
2022/08/19 00:49:22;;;;;;;1.97;1.87;;;;;19.40;95621.00;;;;5097178;28;20531;-60
2022/08/19 00:51:55;;;;;;;2.10;1.93;;;;;19.50;95630.00;;;;5114770;28;20197;-59
2022/08/19 00:54:23;;;;;;;1.53;1.53;;;;;19.50;95633.00;;;;5114839;28;20738;-59
2022/08/19 00:56:50;;;;;;;3.33;2.53;;;;;19.30;95642.00;;;;5114680;28;20221;-60
2022/08/19 00:59:18;;;;;;;4.23;3.03;;;;;19.20;95653.00;;;;5114679;28;20190;-61
2022/08/19 01:01:47;;;;;;;2.00;1.90;;;;;19.20;95651.00;;;;5114583;28;20220;-60
2022/08/19 01:04:14;;;;;;;2.90;2.70;;;;;19.20;95652.00;;;;5114780;28;20218;-60
2022/08/19 01:06:41;;;;;;;1.43;1.33;;;;;19.30;95651.00;;;;5114546;28;20226;-61
2022/08/19 01:09:11;;;;;;;3.73;2.20;;;;;19.30;95646.00;;;;5113902;28;20300;-60
2022/08/19 01:11:43;;;;;;;2.03;1.93;;;;;19.30;95648.00;;;;5115112;28;20198;-60
2022/08/19 01:14:11;;;;;;;3.60;2.70;;;;;19.30;95638.00;;;;5114461;28;20749;-62
2022/08/19 01:16:39;;;;;;;1.23;1.23;;;;;19.40;95642.00;;;;5114522;28;20204;-59
2022/08/19 01:19:16;;;;;;;1.90;1.70;;;;;19.30;95644.00;;;;5114358;28;20197;-60
2022/08/19 01:21:50;;;;;;;2.97;2.77;;;;;19.40;95642.00;;;;5114294;28;20264;-60
2022/08/19 01:24:19;;;;;;;2.80;2.60;;;;;19.40;95638.00;;;;5114370;28;20201;-59
2022/08/19 01:26:48;;;;;;;1.43;1.43;;;;;19.40;95634.00;;;;5096228;28;20229;-60
2022/08/19 01:29:15;;;;;;;2.83;2.63;;;;;19.20;95635.00;;;;5114202;28;20190;-58
2022/08/19 01:31:42;;;;;;;3.10;2.83;;;;;19.30;95633.00;;;;5114121;28;20217;-60
2022/08/19 01:34:10;;;;;;;1.87;1.77;;;;;19.30;95628.00;;;;5114078;28;20198;-60
2022/08/19 01:36:41;;;;;;;2.13;2.03;;;;;19.40;95632.00;;;;5114081;28;20190;-60
2022/08/19 01:39:12;;;;;;;2.33;2.23;;;;;19.40;95630.00;;;;5114090;28;20695;-60
2022/08/19 01:41:42;;;;;;;3.40;3.00;;;;;19.40;95629.00;;;;5114081;28;20273;-60
2022/08/19 01:44:11;;;;;;;1.73;1.63;;;;;19.30;95633.00;;;;5114110;28;20190;-64
2022/08/19 01:46:38;;;;;;;2.90;2.40;;;;;19.30;95635.00;;;;5114102;28;20559;-59
2022/08/19 01:49:07;;;;;;;2.97;2.73;;;;;19.30;95637.00;;;;5114001;28;20210;-59
2022/08/19 01:51:34;;;;;;;2.40;2.20;;;;;19.30;95626.00;;;;5113931;28;20251;-60
2022/08/19 01:54:01;;;;;;;4.27;2.57;;;;;19.30;95622.00;;;;5113793;28;20222;-60
2022/08/19 01:56:30;;;;;;;2.17;2.07;;;;;19.40;95619.00;;;;5113871;28;20206;-60
2022/08/19 01:59:02;;;;;;;1.90;1.30;;;;;19.20;95621.00;;;;5113672;28;20649;-59
2022/08/19 02:01:32;;;;;;;1.37;1.37;;;;;19.40;95615.00;;;;5113682;28;20209;-57
2022/08/19 02:04:00;;;;;;;5.97;3.47;;;;;19.30;95618.00;;;;5113968;28;20638;-59
2022/08/19 02:06:28;;;;;;;3.20;3.00;;;;;19.20;95625.00;;;;5113526;28;20222;-59
2022/08/19 02:08:57;;;;;;;1.47;1.47;;;;;19.30;95628.00;;;;5113657;28;20621;-59
2022/08/19 02:11:27;;;;;;;2.63;2.43;;;;;19.20;95633.00;;;;5113482;28;20222;-59
2022/08/19 02:13:57;;;;;;;1.60;1.50;;;;;19.20;95641.00;;;;5113691;28;20194;-60
2022/08/19 02:16:24;;;;;;;3.70;3.37;;;;;19.30;95630.00;;;;5113384;28;20232;-59
2022/08/19 02:18:52;;;;;;;8.23;2.50;;;;;19.30;95628.00;;;;5113478;28;20290;-59
2022/08/19 02:21:20;;;;;;;4.73;2.97;;;;;19.20;95631.00;;;;5117091;28;20633;-60
2022/08/19 02:23:47;;;;;;;3.20;2.83;;;;;19.30;95636.00;;;;5117284;28;20721;-62
2022/08/19 02:26:14;;;;;;;2.53;2.37;;;;;19.20;95628.00;;;;5117238;28;20296;-59
2022/08/19 02:28:42;;;;;;;2.97;2.80;;;;;19.20;95628.00;;;;5117224;28;20194;-60
2022/08/19 02:31:12;;;;;;;2.40;2.20;;;;;19.20;95626.00;;;;5117235;28;20194;-58
2022/08/19 02:33:41;;;;;;;3.00;2.80;;;;;19.10;95618.00;;;;5117050;28;20218;-61
2022/08/19 02:36:10;;;;;;;2.40;2.23;;;;;19.10;95622.00;;;;5118014;28;20563;-59
2022/08/19 02:38:37;;;;;;;1.90;1.80;;;;;19.10;95620.00;;;;5101446;28;20224;-59
2022/08/19 02:41:07;;;;;;;8.60;3.00;;;;;19.00;95625.00;;;;5117071;28;20262;-61
2022/08/19 02:43:36;;;;;;;4.03;2.57;;;;;19.10;95616.00;;;;5116710;28;20205;-59
2022/08/19 02:46:11;;;;;;;1.80;1.70;;;;;19.10;95613.00;;;;5117016;28;20238;-59
2022/08/19 02:48:40;;;;;;;2.93;2.73;;;;;19.00;95609.00;;;;5116725;28;20216;-62
2022/08/19 02:51:07;;;;;;;3.27;3.00;;;;;18.90;95605.00;;;;5116898;28;20284;-58
2022/08/19 02:53:34;;;;;;;2.57;2.37;;;;;19.00;95604.00;;;;5116945;28;20190;-60
2022/08/19 02:56:07;;;;;;;4.00;2.17;;;;;19.10;95611.00;;;;5116531;28;20256;-60
2022/08/19 02:58:34;;;;;;;9.93;1.57;;;;;19.00;95617.00;;;;5098589;28;20202;-59
2022/08/19 03:01:01;;;;;;;2.67;2.53;;;;;18.80;95624.00;;;;5116481;28;20218;-60
2022/08/19 03:03:29;;;;;;;2.03;1.87;;;;;19.00;95619.00;;;;5116808;28;20550;-60
2022/08/19 03:06:08;;;;;;;2.60;2.40;;;;;18.90;95614.00;;;;5116249;28;20214;-60
2022/08/19 03:08:35;;;;;;;4.27;2.23;;;;;18.90;95624.00;;;;5098461;28;20542;-58
2022/08/19 03:11:01;;;;;;;1.40;1.40;;;;;18.80;95626.00;;;;5116408;28;20296;-61
2022/08/19 03:13:28;;;;;;;1.77;1.67;;;;;18.80;95635.00;;;;5116465;28;20201;-63
2022/08/19 03:15:55;;;;;;;2.93;2.73;;;;;18.90;95628.00;;;;5116359;28;20213;-62
2022/08/19 03:18:22;;;;;;;2.00;1.90;;;;;18.80;95634.00;;;;5116526;28;20222;-60
2022/08/19 03:20:54;;;;;;;3.00;1.93;;;;;18.80;95625.00;;;;5116282;28;20190;-60
2022/08/19 03:23:24;;;;;;;2.37;2.27;;;;;18.80;95629.00;;;;5116128;28;20218;-59
2022/08/19 03:25:53;;;;;;;2.50;2.37;;;;;18.70;95623.00;;;;5116058;28;20217;-60
2022/08/19 03:28:21;;;;;;;2.77;2.57;;;;;18.60;95613.00;;;;5116063;28;20193;-59
2022/08/19 03:31:00;;;;;;;3.63;3.33;;;;;18.60;95614.00;;;;5115868;28;20201;-60
2022/08/19 03:33:30;;;;;;;3.00;2.70;;;;;18.60;95610.00;;;;5116009;28;20514;-60
2022/08/19 03:36:03;;;;;;;3.13;2.93;;;;;18.70;95619.00;;;;5115956;28;20198;-59
2022/08/19 03:38:31;;;;;;;3.60;2.63;;;;;18.70;95622.00;;;;5116152;28;20201;-59
2022/08/19 03:40:57;;;;;;;4.57;2.43;;;;;18.60;95618.00;;;;5115891;28;20218;-60
2022/08/19 03:43:24;;;;;;;2.43;2.23;;;;;18.60;95614.00;;;;5098000;28;20233;-62
2022/08/19 03:46:02;;;;;;;2.07;1.97;;;;;18.60;95606.00;;;;5097795;28;20593;-60
2022/08/19 03:48:29;;;;;;;3.03;2.80;;;;;18.60;95605.00;;;;5115861;28;20205;-60
2022/08/19 03:50:59;;;;;;;4.70;2.90;;;;;18.50;95605.00;;;;5115644;28;20249;-60
2022/08/19 03:53:27;;;;;;;3.00;2.83;;;;;18.40;95605.00;;;;5115610;28;20217;-60
2022/08/19 03:55:55;;;;;;;1.83;1.77;;;;;18.50;95612.00;;;;5115635;28;20272;-60
2022/08/19 03:58:23;;;;;;;3.97;3.03;;;;;18.50;95623.00;;;;5115632;28;20660;-61
2022/08/19 04:00:49;;;;;;;2.67;2.50;;;;;18.50;95632.00;;;;5097673;28;20270;-60
2022/08/19 04:03:18;;;;;;;2.47;2.37;;;;;18.60;95631.00;;;;5115607;28;20250;-60
2022/08/19 04:05:46;;;;;;;3.03;2.57;;;;;18.50;95625.00;;;;5097510;28;20245;-60
2022/08/19 04:08:20;;;;;;;2.10;2.00;;;;;18.30;95627.00;;;;5115442;28;20214;-60
2022/08/19 04:10:48;;;;;;;1.70;1.60;;;;;18.40;95625.00;;;;5115689;28;20247;-59
2022/08/19 04:13:16;;;;;;;3.20;2.97;;;;;18.50;95619.00;;;;5115302;28;20232;-60
2022/08/19 04:15:46;;;;;;;2.73;2.53;;;;;18.50;95619.00;;;;5115337;28;20329;-60
2022/08/19 04:18:15;;;;;;;2.60;2.40;;;;;18.40;95619.00;;;;5115326;28;20209;-60
2022/08/19 04:20:46;;;;;;;1.90;1.80;;;;;18.40;95620.00;;;;5115723;28;20193;-60
2022/08/19 04:23:14;;;;;;;3.73;2.87;;;;;18.40;95635.00;;;;5115286;28;20233;-60
2022/08/19 04:25:43;;;;;;;2.57;2.47;;;;;18.30;95636.00;;;;5115050;28;20230;-60
2022/08/19 04:28:14;;;;;;;2.43;2.23;;;;;18.40;95633.00;;;;5115221;28;20194;-60
2022/08/19 04:30:43;;;;;;;3.30;3.10;;;;;18.50;95639.00;;;;5097183;28;20214;-60
2022/08/19 04:33:11;;;;;;;2.67;2.47;;;;;18.40;95638.00;;;;5115359;28;20582;-60
2022/08/19 04:35:39;;;;;;;3.27;2.97;;;;;18.40;95644.00;;;;5114849;28;20232;-60
2022/08/19 04:38:06;;;;;;;3.30;3.10;;;;;18.50;95632.00;;;;5097218;28;20208;-60
2022/08/19 04:43:19;;;;;;;2.87;2.67;;;;;18.40;95637.00;;;;5113756;28;20630;-61
2022/08/19 04:45:47;;;;;;;2.13;2.03;;;;;18.50;95639.00;;;;5097134;28;20645;-61
2022/08/19 04:48:14;;;;;;;4.27;3.87;;;;;18.30;95635.00;;;;5114871;28;20335;-61
2022/08/19 04:50:42;;;;;;;3.07;2.70;;;;;18.50;95635.00;;;;5114852;28;20194;-61
2022/08/19 04:53:10;;;;;;;3.43;3.13;;;;;18.50;95643.00;;;;5114791;28;20217;-60
2022/08/19 04:55:40;;;;;;;2.40;2.30;;;;;18.50;95631.00;;;;5114912;28;20254;-60
2022/08/19 04:58:07;;;;;;;3.30;3.10;;;;;18.40;95625.00;;;;5114838;28;20215;-62
2022/08/19 05:00:39;;;;;;;4.40;3.00;;;;;18.50;95624.00;;;;5114767;28;20265;-60
2022/08/19 05:03:09;;;;;;;3.13;2.93;;;;;18.40;95627.00;;;;5114926;28;20201;-59
2022/08/19 05:05:40;;;;;;;3.07;2.87;;;;;18.30;95625.00;;;;5097019;28;20209;-61
2022/08/19 05:08:07;;;;;;;2.27;2.17;;;;;18.30;95640.00;;;;5114942;28;20198;-60
2022/08/19 05:10:37;;;;;;;5.07;2.93;;;;;18.40;95645.00;;;;5114528;28;20231;-59
2022/08/19 05:13:08;;;;;;;3.77;2.57;;;;;18.30;95658.00;;;;5114433;28;20194;-61
2022/08/19 05:15:36;;;;;;;2.53;2.33;;;;;18.40;95666.00;;;;5096345;28;20222;-60
2022/08/19 05:23:33;;;;;;;2.13;2.03;;;;;18.60;95677.00;;;;5114636;28;20255;-63
2022/08/19 05:26:01;;;;;;;7.57;3.83;;;;;18.70;95681.00;;;;5114219;28;20225;-61
2022/08/19 05:28:27;;;;;;;5.43;3.70;;;;;18.60;95691.00;;;;5114323;28;20194;-60
2022/08/19 05:30:55;;;;;;;4.73;3.80;;;;;18.60;95691.00;;;;5114088;28;20205;-60
2022/08/19 05:33:24;;;;;;;2.97;2.67;;;;;18.50;95693.00;;;;5114521;28;20205;-59
2022/08/19 05:35:52;;;;;;;3.10;2.90;;;;;18.40;95700.00;;;;5114455;28;20208;-59
2022/08/19 05:38:19;;;;;;;3.10;2.50;;;;;18.50;95710.00;;;;5114368;28;20211;-58
2022/08/19 05:40:49;;;;;;;1.90;1.80;;;;;18.60;95709.00;;;;5114086;28;20210;-61
2022/08/19 05:43:16;;;;;;;4.83;3.80;;;;;18.50;95714.00;;;;5114253;28;20204;-60
2022/08/19 05:45:44;;;;;;;2.97;2.77;;;;;18.50;95708.00;;;;5113979;28;20221;-60
2022/08/19 05:48:11;;;;;;;2.73;2.53;;;;;18.60;95715.00;;;;5114099;28;20293;-63
2022/08/19 05:50:40;;;;;;;5.23;4.80;;;;;18.70;95714.00;;;;5114010;28;20634;-60
2022/08/19 05:53:08;;;;;;;3.13;2.93;;;;;18.70;95715.00;;;;5114130;28;20187;-60
2022/08/19 05:55:37;;;;;;;2.67;2.57;;;;;18.60;95706.00;;;;5113649;28;20198;-63
2022/08/19 05:58:07;;;;;;;2.70;2.50;;;;;18.70;95711.00;;;;5113865;28;20217;-59
2022/08/19 06:00:34;;;;;;;2.73;2.53;;;;;18.70;95715.00;;;;5113768;28;20203;-59
2022/08/19 06:03:03;;;;;;;4.50;4.10;;;;;18.70;95723.00;;;;5095961;28;20233;-59
2022/08/19 06:05:30;;;;;;;2.17;2.07;;;;;18.60;95717.00;;;;5113744;28;20205;-65
2022/08/19 06:07:58;;;;;;;1.97;1.87;;;;;18.70;95722.00;;;;5113777;28;20496;-61
2022/08/19 06:10:27;;;;;;;5.53;3.13;;;;;18.70;95717.00;;;;5096003;28;20278;-60
2022/08/19 06:12:55;;;;;;;3.40;2.93;;;;;18.70;95710.00;;;;5113731;28;20354;-64
2022/08/19 06:15:25;;;;;;;3.50;3.20;;;;;18.70;95721.00;;;;5095779;28;20221;-58
2022/08/19 06:17:54;;;;;;;3.30;3.07;;;;;18.80;95718.00;;;;5113597;28;20198;-59
2022/08/19 06:20:20;;;;;;;5.70;3.20;;;;;18.80;95709.00;;;;5113674;28;20208;-61
2022/08/19 06:22:51;;;;;;;2.80;2.10;;;;;18.80;95706.00;;;;5113808;28;20268;-59
2022/08/19 06:25:18;;;;;;;4.00;3.70;;;;;18.80;95707.00;;;;5113454;28;20214;-59
2022/08/19 06:27:46;;;;;;;3.03;2.90;;;;;18.80;95711.00;;;;5113851;28;20225;-61
2022/08/19 06:30:13;;;;;;;8.27;2.90;;;;;18.70;95714.00;;;;5113444;28;20221;-61
2022/08/19 06:32:40;;;;;;;2.87;2.67;;;;;18.80;95709.00;;;;5113750;28;20507;-62
2022/08/19 06:35:08;;;;;;;2.27;2.17;;;;;18.90;95714.00;;;;5113306;28;20196;-60
2022/08/19 06:37:36;;;;;;;3.87;3.57;;;;;18.80;95701.00;;;;5113576;28;20194;-60
2022/08/19 06:40:03;;;;;;;3.20;3.00;;;;;18.80;95699.00;;;;5095270;28;20304;-60
2022/08/19 06:42:30;;;;;;;3.23;3.03;;;;;18.70;95703.00;;;;5113372;28;20586;-59
2022/08/19 06:44:57;;;;;;;2.77;2.37;;;;;18.80;95694.00;;;;5113253;28;20186;-60
2022/08/19 06:47:25;;;;;;;3.33;3.13;;;;;19.00;95688.00;;;;5095062;28;20230;-60
2022/08/19 06:49:59;;;;;;;2.23;2.13;;;;;19.00;95704.00;;;;5113095;28;20255;-60
2022/08/19 06:52:28;;;;;;;4.13;3.77;;;;;19.20;95700.00;;;;5112962;28;20238;-60
2022/08/19 06:54:57;;;;;;;3.00;2.80;;;;;19.00;95706.00;;;;5113071;28;20268;-60
2022/08/19 06:57:25;;;;;;;3.87;2.60;;;;;19.10;95709.00;;;;5095464;28;20198;-60
2022/08/19 06:59:52;;;;;;;2.57;2.37;;;;;19.10;95705.00;;;;5113094;28;20190;-57
2022/08/19 07:02:26;;;;;;;2.90;2.70;;;;;19.20;95709.00;;;;5113349;28;20620;-59
2022/08/19 07:04:53;;;;;;;5.60;3.57;;;;;19.20;95714.00;;;;5113118;28;20221;-61
2022/08/19 07:07:21;;;;;;;2.00;1.87;;;;;19.30;95716.00;;;;5114840;28;20227;-63
2022/08/19 07:09:50;;;;;;;3.07;2.87;;;;;19.40;95718.00;;;;5116384;28;20277;-59
2022/08/19 07:12:17;;;;;;;3.23;2.90;;;;;19.50;95719.00;;;;5116497;28;20280;-60
2022/08/19 07:14:45;;;;;;;1.93;1.83;;;;;19.60;95714.00;;;;5116416;28;20269;-58
2022/08/19 07:17:13;;;;;;;2.07;1.93;;;;;19.60;95719.00;;;;5116254;28;20645;-60
2022/08/19 07:19:41;;;;;;;2.20;2.10;;;;;19.70;95708.00;;;;5116242;28;20205;-58
2022/08/19 07:22:08;;;;;;;2.43;2.20;;;;;19.80;95716.00;;;;5116304;28;20279;-58
2022/08/19 07:24:37;;;;;;;2.23;2.13;;;;;19.70;95723.00;;;;5116119;28;20190;-58
2022/08/19 07:27:06;;;;;;;2.63;2.47;;;;;19.70;95724.00;;;;5115863;28;20218;-59
2022/08/19 07:29:36;;;;;;;2.93;1.83;;;;;19.80;95731.00;;;;5116120;28;20201;-59
2022/08/19 07:32:05;;;;;;;4.30;2.47;;;;;19.70;95735.00;;;;5098456;28;20546;-58
2022/08/19 07:34:36;;;;;;;3.63;2.57;;;;;19.60;95732.00;;;;5116333;28;20622;-59
2022/08/19 07:37:06;;;;;;;2.10;2.00;;;;;19.60;95744.00;;;;5116261;28;20198;-59
2022/08/19 07:39:35;;;;;;;1.90;1.80;;;;;19.60;95743.00;;;;5098274;28;20354;-59
2022/08/19 07:42:06;;;;;;;2.30;2.20;;;;;19.50;95739.00;;;;5115899;28;20175;-59
2022/08/19 07:44:37;;;;;;;1.83;1.73;;;;;19.50;95737.00;;;;5115826;28;20247;-56
2022/08/19 07:47:05;;;;;;;2.50;2.33;;;;;19.70;95733.00;;;;5097851;28;20237;-59
2022/08/19 07:49:32;;;;;;;2.20;2.10;;;;;19.80;95733.00;;;;5115728;28;20206;-59
2022/08/19 07:52:07;;;;;;;2.27;2.10;;;;;20.00;95733.00;;;;5115799;28;20193;-59
2022/08/19 07:54:38;;;;;;;2.83;2.63;;;;;20.10;95726.00;;;;5115744;28;20278;-60
2022/08/19 07:57:06;;;;;;;1.47;1.40;;;;;20.10;95729.00;;;;5115620;28;20252;-60
2022/08/19 07:59:34;;;;;;;1.33;1.27;;;;;20.30;95737.00;;;;5097452;28;20546;-60
2022/08/19 08:02:01;;;;;;;1.47;1.37;;;;;20.40;95718.00;;;;5097705;28;20208;-60
2022/08/19 08:10:00;;;;;;;2.40;2.30;;;;;21.20;95717.00;;;;5115369;28;20230;-60
2022/08/19 08:12:31;;;;;;;1.80;1.70;;;;;21.40;95723.00;;;;5114693;28;20628;-58
2022/08/19 08:15:01;;;;;;;1.27;1.27;;;;;21.70;95728.00;;;;5115294;28;20213;-58
2022/08/19 08:17:29;;;;;;;1.97;1.87;;;;;21.70;95726.00;;;;5114964;28;20198;-59
2022/08/19 08:19:59;;;;;;;1.53;1.50;;;;;21.70;95718.00;;;;5115226;28;20300;-55
2022/08/19 08:25:18;;;;;;;1.17;1.17;;;;;21.70;95731.00;;;;5097274;28;20290;-61
2022/08/19 08:27:49;;;;;;;2.33;2.23;;;;;21.50;95740.00;;;;5115142;28;20217;-58
2022/08/19 08:30:19;;;;;;;1.30;1.30;;;;;21.40;95743.00;;;;5115305;28;20201;-59
2022/08/19 08:32:46;;;;;;;1.40;1.37;;;;;21.30;95747.00;;;;5115191;28;20186;-59
2022/08/19 08:35:15;;;;;;;2.57;2.13;;;;;21.10;95745.00;;;;5115054;28;20190;-59
2022/08/19 08:37:43;;;;;;;1.70;1.60;;;;;21.10;95754.00;;;;5114930;28;20229;-59
2022/08/19 08:40:19;;;;;;;1.83;1.73;;;;;20.90;95752.00;;;;5115028;28;20250;-59
2022/08/19 08:42:54;;;;;;;1.67;1.60;;;;;20.80;95752.00;;;;5114946;28;20304;-59
2022/08/19 08:45:22;;;;;;;1.30;1.20;;;;;20.90;95750.00;;;;5115164;28;20193;-59
2022/08/19 08:47:56;;;;;;;2.20;1.83;;;;;20.90;95751.00;;;;5114814;28;20228;-60
2022/08/19 08:50:29;;;;;;;2.33;2.23;;;;;21.00;95755.00;;;;5114788;28;20281;-60
2022/08/19 08:52:58;;;;;;;4.17;2.73;;;;;21.00;95750.00;;;;5115055;28;20214;-60
2022/08/19 08:55:27;;;;;;;1.60;1.50;;;;;21.10;95752.00;;;;5114605;28;20221;-59
2022/08/19 08:58:01;;;;;;;1.60;1.47;;;;;21.20;95756.00;;;;5114673;28;20194;-60
2022/08/19 09:00:30;;;;;;;3.17;2.87;;;;;21.20;95754.00;;;;5114560;28;20255;-60
2022/08/19 09:02:59;;;;;;;1.17;1.07;;;;;21.20;95752.00;;;;5114710;28;20218;-60
2022/08/19 09:05:33;;;;;;;1.70;1.60;;;;;21.10;95750.00;;;;5114838;28;20217;-59
2022/08/19 09:08:05;;;;;;;1.40;1.40;;;;;21.20;95758.00;;;;5114708;28;20517;-60
2022/08/19 09:10:38;;;;;;;1.23;1.23;;;;;21.20;95755.00;;;;5114693;28;20201;-61
2022/08/19 09:13:12;;;;;;;1.47;1.20;;;;;21.30;95751.00;;;;5114628;28;20210;-61
2022/08/19 09:15:45;;;;;;;1.83;1.73;;;;;21.30;95755.00;;;;5114423;28;20656;-60
2022/08/19 09:18:15;;;;;;;2.60;2.40;;;;;21.10;95761.00;;;;5114392;28;20217;-59
2022/08/19 09:20:42;;;;;;;1.87;1.77;;;;;21.20;95763.00;;;;5096939;28;20558;-61
2022/08/19 09:23:10;;;;;;;2.03;1.90;;;;;21.10;95760.00;;;;5114338;28;20217;-61
2022/08/19 09:25:39;;;;;;;2.20;2.10;;;;;21.20;95763.00;;;;5114191;28;20281;-60
2022/08/19 09:28:07;;;;;;;2.57;2.37;;;;;21.20;95763.00;;;;5114287;28;20668;-62
2022/08/19 09:30:39;;;;;;;1.30;1.23;;;;;21.30;95765.00;;;;5113428;28;20214;-62
2022/08/19 09:33:06;;;;;;;1.63;1.53;;;;;21.20;95771.00;;;;5114197;28;20205;-62
2022/08/19 09:35:35;;;;;;;2.07;1.97;;;;;21.30;95765.00;;;;5114215;28;20214;-60
2022/08/19 09:38:02;;;;;;;2.40;2.20;;;;;21.30;95756.00;;;;5114226;28;20284;-60
2022/08/19 09:40:30;;;;;;;2.20;2.00;;;;;21.50;95767.00;;;;5114133;28;20190;-65
2022/08/19 09:43:02;;;;;;;2.23;2.13;;;;;21.60;95760.00;;;;5114102;28;20198;-60
2022/08/19 09:45:29;;;;;;;1.73;1.63;;;;;21.60;95772.00;;;;5114073;28;20547;-62
2022/08/19 09:47:57;;;;;;;2.47;1.83;;;;;21.50;95783.00;;;;5114048;28;20226;-66
2022/08/19 09:50:24;;;;;;;1.93;1.70;;;;;21.40;95784.00;;;;5114049;28;20182;-62
2022/08/19 09:52:53;;;;;;;2.07;1.97;;;;;21.50;95789.00;;;;5113889;28;20243;-61
2022/08/19 09:55:20;;;;;;;1.03;0.97;;;;;21.50;95780.00;;;;5113825;28;20201;-60
2022/08/19 09:57:53;;;;;;;1.00;1.00;;;;;21.60;95777.00;;;;5096053;28;20202;-60
2022/08/19 10:00:20;;;;;;;8.53;1.80;;;;;21.80;95785.00;;;;5113945;28;20202;-65
2022/08/19 10:02:47;;;;;;;1.37;1.37;;;;;21.70;95779.00;;;;5114028;28;20204;-60
2022/08/19 10:08:02;;;;;;;2.73;1.70;;;;;21.70;95786.00;;;;5114003;28;20236;-59
2022/08/19 10:10:35;;;;;;;1.23;1.23;;;;;21.70;95790.00;;;;5113664;28;20669;-61
2022/08/19 10:13:02;;;;;;;1.70;1.60;;;;;21.80;95792.00;;;;5113925;28;20221;-59
2022/08/19 10:15:29;;;;;;;2.10;2.00;;;;;21.90;95790.00;;;;5113603;28;20193;-59
2022/08/19 10:17:57;;;;;;;1.30;1.30;;;;;22.00;95793.00;;;;5113850;28;20714;-59
2022/08/19 10:20:24;;;;;;;1.60;1.50;;;;;22.10;95789.00;;;;5114037;28;20190;-60
2022/08/19 10:22:51;;;;;;;1.87;1.77;;;;;22.00;95783.00;;;;5113760;28;20229;-59
2022/08/19 10:25:18;;;;;;;2.10;2.00;;;;;22.30;95783.00;;;;5113555;28;20733;-61
2022/08/19 10:27:45;;;;;;;1.93;1.83;;;;;22.30;95784.00;;;;5113453;28;20312;-59
2022/08/19 10:30:15;;;;;;;1.63;1.52;;;;;22.50;95778.00;;;;5113630;28;20641;-58
2022/08/19 10:32:45;;;;;;;1.90;1.30;;;;;22.60;95774.00;;;;5113438;28;20188;-61
2022/08/19 10:35:15;;;;;;;6.53;2.03;;;;;22.90;95773.00;;;;5113515;28;20645;-60
2022/08/19 10:37:42;;;;;;;2.22;2.13;;;;;23.10;95783.00;;;;5113814;28;20293;-60
2022/08/19 10:40:11;;;;;;;1.00;1.00;;;;;22.90;95778.00;;;;5113572;28;20738;-60
2022/08/19 10:42:38;;;;;;;0.98;0.98;;;;;22.90;95775.00;;;;5117065;28;20540;-64
2022/08/19 10:45:06;;;;;;;2.42;2.25;;;;;22.90;95774.00;;;;5098970;28;20237;-60
2022/08/19 10:47:34;;;;;;;2.88;1.85;;;;;22.80;95768.00;;;;5116877;28;20236;-59
2022/08/19 10:52:49;;;;;;;1.92;1.83;;;;;22.80;95766.00;;;;5116986;28;20544;-59
2022/08/19 10:58:02;;;;;;;1.40;1.35;;;;;22.80;95764.00;;;;5116749;28;20224;-60
2022/08/19 11:00:30;;;;;;;0.77;0.77;;;;;22.80;95761.00;;;;5116663;28;20186;-62
2022/08/19 11:02:58;;;;;;;1.15;1.15;;;;;22.70;95766.00;;;;5116734;28;20226;-60
2022/08/19 11:05:25;;;;;;;1.05;1.05;;;;;22.80;95764.00;;;;5116489;28;20519;-59
2022/08/19 11:07:52;;;;;;;0.70;0.70;;;;;22.70;95764.00;;;;5116379;28;20356;-65
2022/08/19 11:10:19;;;;;;;1.20;1.20;;;;;22.70;95761.00;;;;5098736;28;20214;-67
2022/08/19 11:12:46;;;;;;;1.40;1.30;;;;;22.80;95751.00;;;;5116725;28;20190;-57
2022/08/19 11:15:13;;;;;;;1.35;1.35;;;;;22.80;95751.00;;;;5116355;28;20190;-61
2022/08/19 11:17:41;;;;;;;1.38;1.30;;;;;22.80;95752.00;;;;5098419;28;20293;-63
2022/08/19 11:20:10;;;;;;;1.33;1.25;;;;;22.90;95759.00;;;;5098458;28;20233;-63
2022/08/19 11:22:37;;;;;;;1.20;1.20;;;;;22.90;95745.00;;;;5116699;28;20273;-62
2022/08/19 11:25:05;;;;;;;0.95;0.95;;;;;23.20;95751.00;;;;5116178;28;20594;-60
2022/08/19 11:27:37;;;;;;;0.90;0.90;;;;;23.20;95748.00;;;;5116087;28;20226;-59
2022/08/19 11:30:05;;;;;;;0.80;0.80;;;;;23.10;95753.00;;;;5098477;28;20229;-59
2022/08/19 11:32:32;;;;;;;0.70;0.70;;;;;23.20;95749.00;;;;5116249;28;20225;-60
2022/08/19 11:34:59;;;;;;;1.65;1.55;;;;;23.10;95750.00;;;;5116087;28;20221;-59
2022/08/19 11:37:29;;;;;;;0.75;0.75;;;;;23.20;95761.00;;;;5116026;28;20243;-59
2022/08/19 11:39:58;;;;;;;1.60;1.50;;;;;23.40;95747.00;;;;5116064;28;20234;-59
2022/08/19 11:45:13;;;;;;;2.08;1.25;;;;;24.40;95747.00;;;;5116025;28;20175;-59
2022/08/19 11:47:40;;;;;;;1.00;1.00;;;;;24.60;95756.00;;;;5115809;28;20256;-59
2022/08/19 11:50:07;;;;;;;0.93;0.93;;;;;24.60;95753.00;;;;5115905;28;20293;-59
2022/08/19 11:52:35;;;;;;;0.82;0.82;;;;;24.50;95758.00;;;;5115182;28;20186;-59
2022/08/19 11:55:02;;;;;;;1.17;1.17;;;;;24.40;95757.00;;;;5115781;28;20249;-59
2022/08/19 11:57:29;;;;;;;0.80;0.80;;;;;24.00;95755.00;;;;5116050;28;20228;-63
2022/08/19 11:59:56;;;;;;;1.33;1.33;;;;;24.00;95756.00;;;;5098042;28;20204;-59
2022/08/19 12:02:23;;;;;;;1.30;1.23;;;;;24.20;95752.00;;;;5116057;28;20221;-60
2022/08/19 12:04:50;;;;;;;0.68;0.68;;;;;24.30;95759.00;;;;5115839;28;20208;-59
2022/08/19 12:07:17;;;;;;;1.00;1.00;;;;;24.30;95754.00;;;;5115696;28;20228;-59
2022/08/19 12:09:44;;;;;;;2.13;1.40;;;;;24.50;95744.00;;;;5115656;28;20251;-59
2022/08/19 12:12:13;;;;;;;1.48;1.40;;;;;24.90;95740.00;;;;5115767;28;20669;-61
2022/08/19 12:14:39;;;;;;;1.45;1.35;;;;;25.20;95748.00;;;;5115572;28;20254;-60
2022/08/19 12:17:10;;;;;;;1.40;1.40;;;;;25.30;95748.00;;;;5097687;28;20591;-59
2022/08/19 12:19:39;;;;;;;1.20;1.20;;;;;24.90;95740.00;;;;5115380;28;20221;-58
2022/08/19 12:22:07;;;;;;;0.77;0.77;;;;;25.00;95742.00;;;;5097375;28;20512;-59
2022/08/19 12:24:34;;;;;;;1.00;1.00;;;;;25.30;95743.00;;;;5115324;28;20201;-60
2022/08/19 12:27:02;;;;;;;1.58;1.00;;;;;25.50;95745.00;;;;5115462;28;20403;-59
2022/08/19 12:29:29;;;;;;;0.90;0.90;;;;;25.60;95729.00;;;;5115418;28;20198;-59
2022/08/19 12:32:00;;;;;;;1.08;1.08;;;;;25.40;95716.00;;;;5115139;28;20526;-59
2022/08/19 12:34:29;;;;;;;1.08;1.08;;;;;25.60;95719.00;;;;5115309;28;20190;-59
2022/08/19 12:37:02;;;;;;;3.80;1.95;;;;;25.90;95725.00;;;;5115234;28;20225;-56
2022/08/19 12:39:30;;;;;;;1.45;1.38;;;;;26.20;95710.00;;;;5115682;28;20220;-59
2022/08/19 12:41:57;;;;;;;0.60;0.60;;;;;26.20;95728.00;;;;5115134;28;20200;-59
2022/08/19 12:44:25;;;;;;;0.90;0.90;;;;;26.30;95719.00;;;;5115120;28;20214;-60
2022/08/19 12:46:52;;;;;;;1.25;1.25;;;;;26.80;95727.00;;;;5114806;28;20222;-59
2022/08/19 12:49:18;;;;;;;0.80;0.80;;;;;26.10;95739.00;;;;5114995;28;20221;-60
2022/08/19 12:51:45;;;;;;;1.05;1.05;;;;;25.20;95753.00;;;;5115130;28;20633;-59
2022/08/19 12:54:12;;;;;;;1.02;1.02;;;;;25.30;95747.00;;;;5114880;28;20239;-59